Time;durP1;ratioP1;P1;durP2;ratioP2;P2;SDS_P1;SDS_P2;PMS_P1;PMS_P2;Temp;Humidity;BMP_temperature;BMP_pressure;BME280_temperature;BME280_humidity;BME280_pressure;Samples;Min_cycle;Max_cycle;Signal;HPM_P1;HPM_P2
2022/04/22 00:02:32;;;;;;;8.40;4.65;;;9.30;99.90;;;;;;6123999;23;20096;-88
2022/04/22 00:05:00;;;;;;;7.88;5.97;;;9.30;99.90;;;;;;6134970;23;19997;-91
2022/04/22 00:07:28;;;;;;;11.02;5.13;;;9.20;99.90;;;;;;6208081;23;20024;-88
2022/04/22 00:09:54;;;;;;;5.80;4.60;;;9.20;99.90;;;;;;6222667;23;20012;-88
2022/04/22 00:12:20;;;;;;;7.72;5.30;;;9.10;99.90;;;;;;6214919;23;20059;-88
2022/04/22 00:14:48;;;;;;;7.75;5.07;;;9.10;99.90;;;;;;6214982;23;20009;-88
2022/04/22 00:17:14;;;;;;;8.32;5.15;;;9.10;99.90;;;;;;6213017;23;20053;-88
2022/04/22 00:19:40;;;;;;;8.98;5.10;;;8.90;99.90;;;;;;6215134;23;20431;-88
2022/04/22 00:22:29;;;;;;;6.32;4.75;;;8.90;99.90;;;;;;6214969;23;20008;-89
2022/04/22 00:24:57;;;;;;;10.45;5.00;;;8.90;99.90;;;;;;6213451;23;20075;-87
2022/04/22 00:27:23;;;;;;;7.78;4.90;;;8.90;99.90;;;;;;6214687;23;20001;-89
2022/04/22 00:29:49;;;;;;;8.52;4.90;;;8.80;99.90;;;;;;6214297;23;20016;-88
2022/04/22 00:32:14;;;;;;;9.90;5.30;;;8.80;99.90;;;;;;6212762;23;20012;-88
2022/04/22 00:34:41;;;;;;;8.43;5.45;;;8.80;99.90;;;;;;6213071;23;20331;-88
2022/04/22 00:37:06;;;;;;;8.23;4.85;;;8.70;99.90;;;;;;6213288;23;19997;-88
2022/04/22 00:39:32;;;;;;;13.45;5.90;;;8.70;99.90;;;;;;6214679;23;20087;-88
2022/04/22 00:42:06;;;;;;;9.32;5.53;;;8.60;99.90;;;;;;6212834;23;20088;-88
2022/04/22 00:44:34;;;;;;;10.13;5.82;;;8.60;99.90;;;;;;6213116;23;20435;-89
2022/04/22 00:47:00;;;;;;;8.00;5.78;;;8.50;99.90;;;;;;6212494;23;20001;-89
2022/04/22 00:49:26;;;;;;;11.70;6.43;;;8.50;99.90;;;;;;6214252;23;20012;-89
2022/04/22 00:51:57;;;;;;;9.15;5.90;;;8.50;99.90;;;;;;6213992;23;20009;-88
2022/04/22 00:54:22;;;;;;;11.95;6.35;;;8.50;99.90;;;;;;6213072;23;20009;-89
2022/04/22 00:56:51;;;;;;;11.38;5.95;;;8.50;99.90;;;;;;6212445;23;20069;-89
2022/04/22 00:59:18;;;;;;;9.02;6.20;;;8.50;99.90;;;;;;6212766;23;20004;-89
2022/04/22 01:01:47;;;;;;;11.82;6.88;;;8.50;99.90;;;;;;6214357;23;20079;-90
2022/04/22 01:09:50;;;;;;;12.60;7.10;;;8.50;99.90;;;;;;6214465;23;20019;-88
2022/04/22 01:12:17;;;;;;;11.05;7.43;;;8.50;99.90;;;;;;6212513;23;20009;-88
2022/04/22 01:14:47;;;;;;;12.98;7.47;;;8.40;99.90;;;;;;6214384;23;20009;-89
2022/04/22 01:17:13;;;;;;;10.93;8.00;;;8.40;99.90;;;;;;6214063;23;20116;-89
2022/04/22 01:19:41;;;;;;;9.63;7.00;;;8.40;99.90;;;;;;6213202;23;20008;-90
2022/04/22 01:22:27;;;;;;;11.25;7.25;;;8.40;99.90;;;;;;6214889;23;20076;-88
2022/04/22 01:34:57;;;;;;;16.27;7.82;;;8.30;99.90;;;;;;6123539;23;20014;-88
2022/04/22 01:37:42;;;;;;;15.82;8.30;;;8.30;99.90;;;;;;6098188;23;20081;-88
2022/04/22 01:40:18;;;;;;;12.68;7.32;;;8.30;99.90;;;;;;6160254;23;20005;-88
2022/04/22 01:42:44;;;;;;;12.95;8.07;;;8.20;99.90;;;;;;6207460;23;20001;-89
2022/04/22 01:45:14;;;;;;;13.45;7.97;;;8.20;99.90;;;;;;6216501;23;20004;-87
2022/04/22 01:47:40;;;;;;;13.93;8.20;;;8.20;99.90;;;;;;6216182;23;20001;-88
2022/04/22 01:50:07;;;;;;;16.58;8.10;;;8.20;99.90;;;;;;6215890;23;20088;-87
2022/04/22 01:52:33;;;;;;;14.65;7.80;;;8.10;99.90;;;;;;6216437;23;20005;-87
2022/04/22 01:55:03;;;;;;;15.88;9.10;;;8.10;99.90;;;;;;6216195;23;20103;-87
2022/04/22 01:57:29;;;;;;;13.88;8.13;;;8.10;99.90;;;;;;6214703;23;20045;-88
2022/04/22 01:59:58;;;;;;;16.13;8.90;;;8.10;99.90;;;;;;6214664;23;20000;-88
2022/04/22 02:02:23;;;;;;;11.82;8.32;;;8.00;99.90;;;;;;6238373;23;20008;-90
2022/04/22 02:04:52;;;;;;;13.02;8.02;;;8.00;99.90;;;;;;6220790;23;20011;-88
2022/04/22 02:07:30;;;;;;;16.38;9.15;;;8.00;99.90;;;;;;6213145;23;20035;-87
2022/04/22 02:10:11;;;;;;;18.80;8.77;;;8.00;99.90;;;;;;6216599;23;20035;-90
2022/04/22 02:12:39;;;;;;;17.73;9.80;;;8.00;99.90;;;;;;6213922;23;20035;-88
2022/04/22 02:15:08;;;;;;;15.98;8.65;;;7.90;99.90;;;;;;6214907;23;20012;-88
2022/04/22 02:17:36;;;;;;;17.05;8.65;;;7.90;99.90;;;;;;6214451;23;20028;-88
2022/04/22 02:23:27;;;;;;;15.77;9.23;;;7.80;99.90;;;;;;6216045;23;20008;-89
2022/04/22 02:29:06;;;;;;;16.65;9.13;;;7.70;99.90;;;;;;6214848;23;20020;-88
2022/04/22 02:31:38;;;;;;;15.77;9.10;;;7.70;99.90;;;;;;6214715;23;20012;-88
2022/04/22 02:34:09;;;;;;;15.32;8.10;;;7.60;99.90;;;;;;6215727;23;20012;-87
2022/04/22 02:36:37;;;;;;;14.68;8.82;;;7.60;99.90;;;;;;6214707;23;20080;-89
2022/04/22 02:39:03;;;;;;;14.38;8.52;;;7.60;99.90;;;;;;6215841;23;20029;-88
2022/04/22 02:51:00;;;;;;;;;;;7.40;99.90;;;;;;6194613;23;20055;-88
2022/04/22 02:56:07;;;;;;;13.38;8.93;;;7.30;99.90;;;;;;6195138;23;20043;-91
2022/04/22 02:58:40;;;;;;;15.27;8.25;;;7.30;99.90;;;;;;6186109;23;20012;-89
2022/04/22 03:01:08;;;;;;;14.07;7.50;;;7.30;99.90;;;;;;6185739;23;20305;-88
2022/04/22 03:03:33;;;;;;;14.10;8.43;;;7.20;99.90;;;;;;6185046;23;20475;-88
2022/04/22 03:05:59;;;;;;;14.88;7.90;;;7.20;99.90;;;;;;6183569;23;20039;-89
2022/04/22 03:08:25;;;;;;;12.98;7.95;;;7.10;99.90;;;;;;6184851;23;19997;-88
2022/04/22 03:10:51;;;;;;;13.85;7.60;;;7.10;99.90;;;;;;6183360;23;20001;-87
2022/04/22 03:13:16;;;;;;;11.40;8.02;;;7.00;99.90;;;;;;6185194;23;20280;-87
2022/04/22 03:15:43;;;;;;;13.30;8.20;;;7.00;99.90;;;;;;6183563;23;20087;-87
2022/04/22 03:18:09;;;;;;;16.58;9.02;;;7.00;99.90;;;;;;6183479;23;20064;-87
2022/04/22 03:20:35;;;;;;;15.30;8.48;;;6.90;99.90;;;;;;6183504;23;20007;-89
2022/04/22 03:23:08;;;;;;;14.02;9.48;;;6.80;99.90;;;;;;6183858;23;20145;-90
2022/04/22 03:25:34;;;;;;;15.35;9.88;;;6.80;99.90;;;;;;6185802;23;20016;-88
2022/04/22 03:28:00;;;;;;;21.88;10.35;;;6.70;99.90;;;;;;6185235;23;20008;-87
2022/04/22 03:30:26;;;;;;;19.70;10.13;;;6.60;99.90;;;;;;6184956;23;20009;-86
2022/04/22 03:32:52;;;;;;;15.98;9.90;;;6.60;99.90;;;;;;6183516;23;20103;-90
2022/04/22 03:35:17;;;;;;;17.20;9.68;;;6.50;99.90;;;;;;6183521;23;20526;-87
2022/04/22 03:37:43;;;;;;;19.08;10.95;;;6.50;99.90;;;;;;6183947;23;20012;-87
2022/04/22 03:40:10;;;;;;;19.00;10.32;;;6.50;99.90;;;;;;6183732;23;20009;-87
2022/04/22 03:42:36;;;;;;;18.65;10.88;;;6.50;99.90;;;;;;6184298;23;20005;-89
2022/04/22 03:45:03;;;;;;;24.52;11.07;;;6.50;99.90;;;;;;6183826;23;20012;-85
2022/04/22 03:47:29;;;;;;;16.77;10.38;;;6.50;99.90;;;;;;6183566;23;20011;-87
2022/04/22 03:49:55;;;;;;;26.77;12.05;;;6.40;99.90;;;;;;6183768;23;20036;-87
2022/04/22 03:52:23;;;;;;;22.27;12.02;;;6.40;99.90;;;;;;6183886;23;20396;-87
2022/04/22 03:54:48;;;;;;;17.88;11.32;;;6.40;99.90;;;;;;6183661;23;20386;-87
2022/04/22 03:59:59;;;;;;;21.55;12.23;;;6.20;99.90;;;;;;6196739;23;20012;-88
2022/04/22 04:02:24;;;;;;;25.95;13.55;;;6.30;99.90;;;;;;6183084;23;20005;-89
2022/04/22 04:04:53;;;;;;;24.45;13.30;;;6.20;99.90;;;;;;6184888;23;20029;-88
2022/04/22 04:07:18;;;;;;;22.55;12.45;;;6.30;99.90;;;;;;6182823;23;20009;-91
2022/04/22 04:17:56;;;;;;;27.00;13.73;;;6.30;99.90;;;;;;6241713;23;20004;-89
2022/04/22 04:23:15;;;;;;;25.83;13.85;;;6.20;99.90;;;;;;6229015;23;20051;-86
2022/04/22 04:25:45;;;;;;;23.08;13.32;;;6.20;99.90;;;;;;6220974;23;20008;-86
2022/04/22 04:28:13;;;;;;;23.80;12.30;;;6.30;99.90;;;;;;6212580;23;20008;-88
2022/04/22 04:30:43;;;;;;;26.67;14.32;;;6.20;99.90;;;;;;6214161;23;20001;-86
2022/04/22 04:33:10;;;;;;;25.85;13.60;;;6.20;99.90;;;;;;6212621;23;20013;-86
2022/04/22 04:35:37;;;;;;;26.00;13.63;;;6.20;99.90;;;;;;6212768;23;20013;-88
2022/04/22 04:38:03;;;;;;;25.20;13.90;;;6.20;99.90;;;;;;6213868;23;20067;-86
2022/04/22 04:40:29;;;;;;;26.48;14.13;;;6.20;99.90;;;;;;6214241;23;20025;-85
2022/04/22 04:42:54;;;;;;;27.42;16.27;;;6.20;99.90;;;;;;6214450;23;20079;-86
2022/04/22 04:45:20;;;;;;;32.90;16.88;;;6.20;99.90;;;;;;6215654;23;19997;-85
2022/04/22 04:47:46;;;;;;;30.45;16.63;;;6.20;99.90;;;;;;6213083;23;20008;-85
2022/04/22 04:50:13;;;;;;;28.17;16.63;;;6.20;99.90;;;;;;6214910;23;20139;-85
2022/04/22 04:52:40;;;;;;;30.27;15.95;;;6.20;99.90;;;;;;6215098;23;20020;-86
2022/04/22 04:55:08;;;;;;;29.13;15.57;;;6.30;99.90;;;;;;6215247;23;20099;-86
2022/04/22 04:57:34;;;;;;;31.67;16.52;;;6.20;99.90;;;;;;6213041;23;20051;-83
2022/04/22 05:00:01;;;;;;;28.88;16.75;;;6.20;99.90;;;;;;6214756;23;20016;-90
2022/04/22 05:02:26;;;;;;;32.53;18.23;;;6.20;99.90;;;;;;6214758;23;20032;-87
2022/04/22 05:04:52;;;;;;;26.30;15.13;;;6.20;99.90;;;;;;6213026;23;20012;-88
2022/04/22 05:07:18;;;;;;;30.63;17.00;;;6.20;99.90;;;;;;6212732;23;20043;-86
2022/04/22 05:09:43;;;;;;;33.33;17.33;;;6.20;99.90;;;;;;6212786;23;20071;-87
2022/04/22 05:12:10;;;;;;;33.10;17.83;;;6.30;99.90;;;;;;6214558;23;20004;-86
2022/04/22 05:14:36;;;;;;;34.03;17.95;;;6.20;99.90;;;;;;6215730;23;20009;-85
2022/04/22 05:17:02;;;;;;;34.22;18.35;;;6.30;99.90;;;;;;6215549;23;20547;-86
2022/04/22 05:19:27;;;;;;;36.97;20.25;;;6.30;99.90;;;;;;6217829;23;20024;-86
2022/04/22 05:21:55;;;;;;;34.83;18.75;;;6.40;99.90;;;;;;6216764;23;20064;-87
2022/04/22 05:24:21;;;;;;;31.38;18.13;;;6.50;99.90;;;;;;6215104;23;20087;-89
2022/04/22 05:26:47;;;;;;;31.40;17.63;;;6.50;99.90;;;;;;6216416;23;20057;-87
2022/04/22 05:34:41;;;;;;;41.63;20.48;;;6.50;99.90;;;;;;6216528;23;20016;-85
2022/04/22 05:37:07;;;;;;;41.63;21.98;;;6.50;99.90;;;;;;6214780;23;20005;-85
2022/04/22 05:39:33;;;;;;;41.65;21.58;;;6.60;99.90;;;;;;6214014;23;20317;-86
2022/04/22 05:42:02;;;;;;;45.53;21.95;;;6.70;99.90;;;;;;6214298;23;20051;-86
2022/04/22 05:44:28;;;;;;;38.25;20.52;;;6.80;99.90;;;;;;6216203;23;19996;-85
2022/04/22 05:46:54;;;;;;;37.22;20.45;;;6.80;99.90;;;;;;6216589;23;20013;-85
2022/04/22 05:49:20;;;;;;;40.88;21.92;;;6.80;99.90;;;;;;6214429;23;20008;-86
2022/04/22 05:51:45;;;;;;;37.92;20.23;;;6.90;99.90;;;;;;6215664;23;20013;-86
2022/04/22 05:54:11;;;;;;;39.53;21.75;;;7.00;99.90;;;;;;6216030;23;20028;-84
2022/04/22 05:56:36;;;;;;;42.50;22.95;;;7.00;99.90;;;;;;6216659;23;20000;-86
2022/04/22 05:59:03;;;;;;;44.60;22.73;;;7.10;99.90;;;;;;6216294;23;20003;-85
2022/04/22 06:01:29;;;;;;;40.63;20.23;;;7.10;99.90;;;;;;6214383;23;20011;-86
2022/04/22 06:03:54;;;;;;;44.70;21.95;;;7.20;99.90;;;;;;6216542;23;20028;-87
2022/04/22 06:06:20;;;;;;;43.33;21.83;;;7.20;99.90;;;;;;6214847;23;19996;-87
2022/04/22 06:11:32;;;;;;;45.25;22.80;;;7.30;99.90;;;;;;6215989;23;20092;-86
2022/04/22 06:13:58;;;;;;;43.20;22.67;;;7.30;99.90;;;;;;6213552;23;20004;-86
2022/04/22 06:16:23;;;;;;;39.42;21.38;;;7.40;99.90;;;;;;6216071;23;20522;-86
2022/04/22 06:18:49;;;;;;;41.97;23.15;;;7.50;99.90;;;;;;6214385;23;19993;-86
2022/04/22 06:21:15;;;;;;;45.83;22.58;;;7.50;99.90;;;;;;6214304;23;20071;-85
2022/04/22 06:23:41;;;;;;;41.33;21.75;;;7.60;99.90;;;;;;6214364;23;20382;-86
2022/04/22 06:26:06;;;;;;;39.80;21.90;;;7.70;99.90;;;;;;6215460;23;19997;-86
2022/04/22 06:28:33;;;;;;;41.08;21.95;;;7.70;99.90;;;;;;6213962;23;20042;-88
2022/04/22 06:30:59;;;;;;;43.85;21.52;;;7.70;99.90;;;;;;6215406;23;20469;-86
2022/04/22 06:33:25;;;;;;;43.58;22.55;;;7.80;99.90;;;;;;6214309;23;20091;-87
2022/04/22 06:35:50;;;;;;;41.30;22.63;;;8.00;99.90;;;;;;6215752;23;20110;-86
2022/04/22 06:38:18;;;;;;;40.30;22.33;;;8.00;99.90;;;;;;6216001;23;20003;-86
2022/04/22 06:46:13;;;;;;;42.60;21.52;;;8.50;99.90;;;;;;6215921;23;20090;-86
2022/04/22 06:48:39;;;;;;;39.92;21.38;;;8.60;99.90;;;;;;6214505;23;20074;-86
2022/04/22 06:51:08;;;;;;;37.10;20.42;;;8.80;99.90;;;;;;6213843;23;20451;-86
2022/04/22 06:53:34;;;;;;;35.45;20.45;;;8.90;99.90;;;;;;6215184;23;20316;-87
2022/04/22 06:56:02;;;;;;;36.03;21.08;;;9.10;99.90;;;;;;6214545;23;20000;-87
2022/04/22 06:58:31;;;;;;;38.65;21.23;;;9.20;99.90;;;;;;6214935;23;20162;-87
2022/04/22 07:00:56;;;;;;;37.67;20.02;;;9.20;99.90;;;;;;6212765;23;20004;-87
2022/04/22 07:03:22;;;;;;;38.08;21.23;;;9.30;99.90;;;;;;6211839;23;20004;-87
2022/04/22 07:05:49;;;;;;;36.97;19.38;;;9.40;99.90;;;;;;6213706;23;20439;-87
2022/04/22 07:08:17;;;;;;;35.58;19.98;;;9.50;99.90;;;;;;6214192;23;20023;-89
2022/04/22 07:10:44;;;;;;;35.92;18.50;;;9.60;99.90;;;;;;6213886;23;20005;-87
2022/04/22 07:13:10;;;;;;;30.67;19.00;;;9.70;99.90;;;;;;6214994;23;20494;-87
2022/04/22 07:15:37;;;;;;;32.53;18.35;;;9.80;99.90;;;;;;6214791;23;20079;-87
2022/04/22 07:18:03;;;;;;;35.65;19.50;;;9.90;99.90;;;;;;6213072;23;20023;-87
2022/04/22 07:20:29;;;;;;;34.55;19.38;;;9.70;99.90;;;;;;6214224;23;20023;-87
2022/04/22 07:22:55;;;;;;;36.17;20.98;;;9.80;99.90;;;;;;6214993;23;20435;-86
2022/04/22 07:25:21;;;;;;;44.60;21.98;;;9.80;99.90;;;;;;6213540;23;20015;-87
2022/04/22 07:27:48;;;;;;;31.90;18.50;;;9.90;99.90;;;;;;6212759;23;20008;-86
2022/04/22 07:30:19;;;;;;;30.80;18.02;;;10.00;99.90;;;;;;6214724;23;20079;-87
2022/04/22 07:32:48;;;;;;;31.98;17.70;;;10.10;99.90;;;;;;6215460;23;20080;-85
2022/04/22 07:35:18;;;;;;;30.45;17.30;;;10.00;99.90;;;;;;6215302;23;20070;-87
2022/04/22 07:37:47;;;;;;;31.33;17.60;;;10.10;99.90;;;;;;6214644;23;20007;-87
2022/04/22 07:40:15;;;;;;;31.52;17.35;;;10.10;99.90;;;;;;6214931;23;20000;-85
2022/04/22 07:46:46;;;;;;;33.70;18.77;;;10.20;99.90;;;;;;6214804;23;20022;-88
2022/04/22 07:48:12;;;;;;;27.73;15.95;;;10.20;99.90;;;;;;6214115;23;20015;-86
2022/04/22 07:50:38;;;;;;;32.40;16.27;;;10.40;99.90;;;;;;6214041;23;20032;-86
2022/04/22 07:53:03;;;;;;;26.40;16.38;;;10.40;99.90;;;;;;6214416;23;20008;-87
2022/04/22 07:55:29;;;;;;;31.58;17.60;;;10.50;99.90;;;;;;6212830;23;20039;-86
2022/04/22 07:57:56;;;;;;;26.85;16.02;;;10.50;99.90;;;;;;6212302;23;20359;-87
2022/04/22 08:00:22;;;;;;;30.65;16.67;;;10.60;99.90;;;;;;6214081;23;20011;-87
2022/04/22 08:02:48;;;;;;;31.17;17.73;;;10.60;99.90;;;;;;6212859;23;20454;-87
2022/04/22 08:05:13;;;;;;;28.13;15.98;;;10.80;99.90;;;;;;6214603;23;20001;-87
2022/04/22 08:07:39;;;;;;;26.38;16.10;;;10.80;99.90;;;;;;6213685;23;20335;-87
2022/04/22 08:10:06;;;;;;;26.17;15.85;;;10.90;99.90;;;;;;6214375;23;20036;-86
2022/04/22 08:12:33;;;;;;;22.98;15.13;;;10.90;99.90;;;;;;6213630;23;20008;-87
2022/04/22 08:14:59;;;;;;;22.23;13.98;;;11.00;99.90;;;;;;6214322;23;20000;-88
2022/04/22 08:17:25;;;;;;;27.60;14.90;;;11.10;99.90;;;;;;6211911;23;20011;-87
2022/04/22 08:19:50;;;;;;;25.10;15.18;;;11.20;99.90;;;;;;6211912;23;20005;-86
2022/04/22 08:22:17;;;;;;;23.63;14.07;;;11.20;99.90;;;;;;6212212;23;20051;-87
2022/04/22 08:24:43;;;;;;;29.58;15.57;;;11.20;99.90;;;;;;6214520;23;20000;-88
2022/04/22 08:27:10;;;;;;;25.38;14.68;;;11.30;99.60;;;;;;6212453;23;20031;-88
2022/04/22 08:29:37;;;;;;;24.77;14.65;;;11.30;98.70;;;;;;6214120;23;20080;-87
2022/04/22 08:32:04;;;;;;;22.70;14.07;;;11.50;99.20;;;;;;6212210;23;20426;-87
2022/04/22 08:34:29;;;;;;;21.98;13.82;;;11.60;96.50;;;;;;6212706;23;20067;-88
2022/04/22 08:36:55;;;;;;;20.63;13.65;;;11.80;96.30;;;;;;6214315;23;20390;-87
2022/04/22 08:39:20;;;;;;;21.55;13.43;;;11.70;96.70;;;;;;6214014;23;20012;-87
2022/04/22 08:41:48;;;;;;;21.38;12.93;;;11.80;97.20;;;;;;6212125;23;20047;-88
2022/04/22 08:44:14;;;;;;;22.15;13.82;;;12.00;96.00;;;;;;6214120;23;20000;-88
2022/04/22 08:52:14;;;;;;;18.90;12.50;;;12.40;90.80;;;;;;6213522;23;20083;-88
2022/04/22 08:54:44;;;;;;;18.85;11.95;;;12.30;90.00;;;;;;6212201;23;20070;-87
2022/04/22 08:57:10;;;;;;;19.85;11.95;;;12.50;90.40;;;;;;6212476;23;20001;-87
2022/04/22 08:59:35;;;;;;;19.77;12.55;;;12.60;90.20;;;;;;6214192;23;20028;-88
2022/04/22 09:02:02;;;;;;;21.05;12.77;;;12.70;87.70;;;;;;6214049;23;20431;-86
2022/04/22 09:04:28;;;;;;;18.25;11.35;;;12.70;88.40;;;;;;6212441;23;20032;-87
2022/04/22 09:06:55;;;;;;;17.45;11.50;;;12.70;87.70;;;;;;6214092;23;20435;-86
2022/04/22 09:09:20;;;;;;;19.90;11.52;;;12.70;85.50;;;;;;6214115;23;20017;-85
2022/04/22 09:11:47;;;;;;;19.35;11.65;;;12.90;84.50;;;;;;6212594;23;20015;-88
2022/04/22 09:14:22;;;;;;;18.20;12.10;;;13.10;82.70;;;;;;6213239;23;20112;-87
2022/04/22 09:16:50;;;;;;;21.27;11.90;;;13.30;82.80;;;;;;6214642;23;20005;-89
2022/04/22 09:19:18;;;;;;;16.42;11.10;;;13.50;81.00;;;;;;6212152;23;20504;-88
2022/04/22 09:21:55;;;;;;;16.65;11.32;;;13.60;79.80;;;;;;6213227;23;20071;-87
2022/04/22 09:24:20;;;;;;;14.85;9.65;;;13.70;77.60;;;;;;6214198;23;20390;-88
2022/04/22 09:26:46;;;;;;;15.55;10.45;;;13.50;78.90;;;;;;6211987;23;20008;-88
2022/04/22 09:29:12;;;;;;;21.08;11.10;;;13.60;78.90;;;;;;6213898;23;20059;-86
2022/04/22 09:31:46;;;;;;;17.90;9.63;;;13.70;78.60;;;;;;6213534;23;20000;-87
2022/04/22 09:34:12;;;;;;;14.38;9.88;;;13.70;77.80;;;;;;6213953;23;20331;-88
2022/04/22 09:44:56;;;;;;;17.48;10.10;;;14.50;73.10;;;;;;6213668;23;20100;-87
2022/04/22 09:47:27;;;;;;;16.80;9.48;;;14.50;70.30;;;;;;6213539;23;20012;-88
2022/04/22 09:49:53;;;;;;;14.93;9.45;;;14.70;69.30;;;;;;6213935;23;20008;-88
2022/04/22 09:52:34;;;;;;;12.07;8.68;;;14.70;68.90;;;;;;6213220;23;20000;-89
2022/04/22 09:55:06;;;;;;;12.05;8.30;;;15.00;69.40;;;;;;6211678;23;20005;-88
2022/04/22 09:57:52;;;;;;;13.85;7.75;;;15.00;68.50;;;;;;6213638;23;20004;-88
2022/04/22 10:00:25;;;;;;;11.13;7.72;;;15.20;67.70;;;;;;6213377;23;20000;-88
2022/04/22 10:02:52;;;;;;;13.05;8.43;;;15.30;67.10;;;;;;6215501;23;20435;-88
2022/04/22 10:05:20;;;;;;;13.60;7.78;;;15.60;65.10;;;;;;6213662;23;20009;-88
2022/04/22 10:10:18;;;;;;;14.35;8.75;;;15.70;63.40;;;;;;6215257;23;20027;-87
2022/04/22 10:12:58;;;;;;;13.10;8.90;;;15.60;64.40;;;;;;6216241;23;20005;-88
2022/04/22 10:15:30;;;;;;;16.02;8.57;;;15.50;63.30;;;;;;6214280;23;20005;-87
2022/04/22 10:18:06;;;;;;;13.95;9.10;;;15.50;64.50;;;;;;6214721;23;20024;-88
2022/04/22 10:20:46;;;;;;;11.07;7.72;;;15.70;63.90;;;;;;6215004;23;20296;-87
2022/04/22 10:23:56;;;;;;;;;;;;;;;;;;;;;
2022/04/22 10:26:45;;;;;;;12.73;8.25;;;16.30;61.80;;;;;;6216673;23;20095;-87
2022/04/22 10:32:13;;;;;;;11.68;8.18;;;17.00;60.20;;;;;;6193852;23;20001;-86
2022/04/22 10:35:06;;;;;;;11.82;7.32;;;17.20;59.20;;;;;;6215015;23;20028;-87
2022/04/22 10:37:56;;;;;;;9.13;6.85;;;17.50;57.90;;;;;;6216238;23;20004;-86
2022/04/22 10:40:26;;;;;;;9.55;6.47;;;17.60;56.20;;;;;;6213350;23;20006;-87
2022/04/22 10:43:26;;;;;;;9.27;7.15;;;17.50;55.90;;;;;;6216293;23;20024;-85
2022/04/22 10:49:04;;;;;;;9.75;6.65;;;17.80;53.90;;;;;;6216367;23;20342;-86
2022/04/22 10:52:09;;;;;;;11.52;7.00;;;18.20;52.30;;;;;;6213725;23;20001;-87
2022/04/22 10:54:53;;;;;;;17.90;7.28;;;18.50;51.40;;;;;;6190725;23;20063;-88
2022/04/22 10:57:42;;;;;;;9.27;6.97;;;18.80;50.30;;;;;;6214365;23;20108;-88
2022/04/22 11:00:29;;;;;;;10.15;6.57;;;19.10;50.60;;;;;;6213084;23;20509;-87
2022/04/22 11:03:19;;;;;;;9.70;5.85;;;19.30;49.30;;;;;;6214257;23;20005;-85
2022/04/22 11:06:11;;;;;;;9.07;5.80;;;19.60;48.40;;;;;;6216382;23;20004;-87
2022/04/22 11:09:05;;;;;;;10.60;6.35;;;19.70;49.10;;;;;;6191871;23;20112;-86
2022/04/22 11:11:41;;;;;;;7.85;5.13;;;19.50;49.10;;;;;;6217227;23;20016;-85
2022/04/22 11:14:36;;;;;;;7.32;5.47;;;19.50;48.20;;;;;;6216435;23;20004;-88
2022/04/22 11:17:57;;;;;;;8.25;5.88;;;19.30;48.80;;;;;;6171542;23;20044;-86
2022/04/22 11:20:31;;;;;;;10.50;6.20;;;19.00;49.30;;;;;;6210480;23;20079;-85
2022/04/22 11:22:59;;;;;;;9.32;6.68;;;19.20;48.90;;;;;;6214525;23;20011;-87
2022/04/22 11:25:43;;;;;;;10.20;6.13;;;19.40;48.90;;;;;;6216352;23;20338;-85
2022/04/22 11:28:12;;;;;;;8.65;6.10;;;19.60;48.30;;;;;;6213781;23;20633;-85
2022/04/22 11:30:42;;;;;;;7.75;6.07;;;19.60;47.90;;;;;;6216739;23;20008;-86
2022/04/22 11:33:29;;;;;;;10.57;6.22;;;19.70;48.60;;;;;;6215432;23;20067;-88
2022/04/22 11:38:57;;;;;;;12.93;7.20;;;19.40;49.30;;;;;;6216042;23;20063;-86
2022/04/22 11:41:25;;;;;;;9.10;6.15;;;19.50;48.60;;;;;;6214439;23;20008;-87
2022/04/22 11:43:57;;;;;;;8.68;6.35;;;19.50;48.50;;;;;;6216803;23;20001;-88
2022/04/22 11:46:26;;;;;;;8.45;5.82;;;19.30;48.30;;;;;;6219837;23;20009;-88
2022/04/22 11:48:55;;;;;;;7.45;5.85;;;18.80;49.40;;;;;;6234112;23;20012;-87
2022/04/22 11:51:35;;;;;;;8.00;6.35;;;19.00;50.20;;;;;;6214438;23;20005;-86
2022/04/22 11:54:01;;;;;;;11.23;6.32;;;19.20;49.10;;;;;;6215728;23;20012;-87
2022/04/22 11:56:35;;;;;;;13.18;7.00;;;18.60;49.80;;;;;;6214317;23;20087;-86
2022/04/22 11:59:01;;;;;;;10.35;6.45;;;18.60;50.20;;;;;;6216511;23;20036;-87
2022/04/22 12:10:25;;;;;;;8.23;5.45;;;19.60;48.60;;;;;;6215315;23;20035;-86
2022/04/22 12:13:00;;;;;;;6.95;5.70;;;19.70;48.40;;;;;;6214784;23;20005;-86
2022/04/22 12:15:27;;;;;;;8.77;6.15;;;19.60;48.10;;;;;;6213454;23;20039;-85
2022/04/22 12:17:58;;;;;;;9.30;5.57;;;19.40;48.60;;;;;;6213538;23;19997;-85
2022/04/22 12:20:26;;;;;;;;;;;19.20;48.90;;;;;;6214573;23;20343;-88
2022/04/22 12:22:55;;;;;;;8.80;5.35;;;19.30;48.50;;;;;;6223714;23;19916;-87
2022/04/22 12:25:22;;;;;;;6.88;5.50;;;19.40;48.50;;;;;;6235506;23;20052;-88
2022/04/22 12:28:13;;;;;;;8.82;5.55;;;19.10;48.80;;;;;;6234836;23;20069;-89
2022/04/22 12:30:44;;;;;;;7.18;5.18;;;19.10;49.10;;;;;;6230706;23;20025;-87
2022/04/22 12:33:21;;;;;;;10.75;5.43;;;19.00;49.50;;;;;;6215306;23;20004;-87
2022/04/22 12:35:49;;;;;;;7.40;5.95;;;19.00;49.00;;;;;;6213519;23;20004;-88
2022/04/22 12:38:24;;;;;;;7.55;5.53;;;19.00;49.00;;;;;;6215186;23;20003;-88
2022/04/22 12:40:50;;;;;;;5.57;4.90;;;19.10;48.90;;;;;;6216534;23;20000;-86
2022/04/22 12:43:30;;;;;;;7.85;5.80;;;19.30;48.70;;;;;;6216845;23;20001;-86
2022/04/22 12:52:38;;;;;;;7.53;5.00;;;20.20;47.90;;;;;;6216904;23;20035;-86
2022/04/22 12:55:12;;;;;;;6.85;5.15;;;20.30;47.00;;;;;;6216932;23;20016;-88
2022/04/22 12:57:41;;;;;;;6.32;4.90;;;20.10;47.20;;;;;;6218194;23;20335;-88
2022/04/22 13:00:35;;;;;;;7.25;5.10;;;19.90;47.60;;;;;;6214546;23;20001;-86
2022/04/22 13:03:09;;;;;;;8.38;5.75;;;19.80;47.80;;;;;;6214938;23;20083;-87
2022/04/22 13:05:38;;;;;;;6.82;5.07;;;19.60;48.00;;;;;;6217363;23;20076;-87
2022/04/22 13:08:11;;;;;;;6.68;4.95;;;19.60;48.30;;;;;;6214541;23;20012;-86
2022/04/22 13:10:37;;;;;;;6.72;4.97;;;19.60;48.30;;;;;;6214258;23;20032;-86
2022/04/22 13:13:16;;;;;;;6.47;5.10;;;19.50;48.70;;;;;;6214806;23;20032;-85
2022/04/22 13:15:53;;;;;;;10.15;4.70;;;19.50;48.70;;;;;;6217799;23;20008;-86
2022/04/22 13:18:20;;;;;;;8.32;5.88;;;19.40;48.80;;;;;;6216181;23;20007;-86
2022/04/22 13:20:51;;;;;;;6.82;5.03;;;19.70;48.10;;;;;;6215764;23;20083;-86
2022/04/22 13:23:20;;;;;;;9.65;4.85;;;19.90;47.90;;;;;;6217332;23;20001;-86
2022/04/22 13:25:45;;;;;;;9.27;4.68;;;20.30;47.70;;;;;;6215136;23;20005;-86
2022/04/22 13:28:11;;;;;;;7.57;5.13;;;20.60;47.20;;;;;;6217632;23;20000;-87
2022/04/22 13:30:42;;;;;;;6.93;5.50;;;20.50;46.70;;;;;;6218301;23;20023;-86
2022/04/22 13:33:08;;;;;;;7.68;5.28;;;20.30;47.20;;;;;;6215930;23;20031;-86
2022/04/22 13:35:33;;;;;;;10.07;5.10;;;20.20;47.30;;;;;;6218047;23;20454;-87
2022/04/22 13:37:59;;;;;;;8.30;5.07;;;20.30;47.10;;;;;;6218858;23;20319;-87
2022/04/22 13:40:26;;;;;;;6.60;4.30;;;20.20;47.20;;;;;;6218632;23;20027;-87
2022/04/22 13:42:52;;;;;;;5.85;4.68;;;20.10;47.50;;;;;;6218125;23;20005;-86
2022/04/22 13:53:39;;;;;;;19.50;4.80;;;19.70;47.90;;;;;;6215838;23;20408;-87
2022/04/22 13:56:05;;;;;;;5.88;4.40;;;19.60;48.20;;;;;;6213042;23;20382;-87
2022/04/22 13:58:33;;;;;;;8.57;5.82;;;20.30;47.80;;;;;;6213703;23;20447;-86
2022/04/22 14:01:03;;;;;;;15.57;5.45;;;21.10;45.40;;;;;;6213740;23;20305;-86
2022/04/22 14:03:38;;;;;;;7.80;5.72;;;21.40;44.70;;;;;;6213260;23;20343;-86
2022/04/22 14:06:03;;;;;;;8.52;5.03;;;22.20;43.70;;;;;;6213774;23;20016;-87
2022/04/22 14:08:33;;;;;;;6.25;4.18;;;22.40;43.20;;;;;;6213729;23;20088;-86
2022/04/22 14:11:02;;;;;;;5.70;4.70;;;22.70;42.70;;;;;;6213459;23;20040;-87
2022/04/22 14:13:31;;;;;;;4.88;4.07;;;22.50;42.30;;;;;;6214507;23;20053;-88
2022/04/22 14:16:00;;;;;;;6.72;4.22;;;21.90;43.10;;;;;;6213324;23;20008;-87
2022/04/22 14:18:52;;;;;;;6.28;4.07;;;21.50;43.40;;;;;;6215568;23;20011;-86
2022/04/22 14:21:33;;;;;;;5.78;3.88;;;21.30;44.30;;;;;;6213761;23;20004;-88
2022/04/22 14:24:47;;;;;;;5.75;4.70;;;21.10;45.20;;;;;;6215570;23;19996;-87
2022/04/22 14:27:16;;;;;;;7.43;4.50;;;20.80;45.80;;;;;;6126672;23;20002;-86
2022/04/22 14:30:26;;;;;;;6.57;4.95;;;21.50;45.20;;;;;;6152513;23;20347;-87
2022/04/22 14:32:51;;;;;;;7.47;4.20;;;22.90;42.40;;;;;;6214664;23;20011;-88
2022/04/22 14:35:48;;;;;;;5.10;3.95;;;23.80;40.50;;;;;;6213834;23;20095;-87
2022/04/22 14:38:19;;;;;;;5.53;4.35;;;24.00;39.70;;;;;;6214026;23;20001;-88
2022/04/22 14:40:45;;;;;;;;;;;23.50;40.10;;;;;;6215764;23;20024;-87
2022/04/22 14:43:27;;;;;;;5.07;4.03;;;23.10;40.60;;;;;;6215180;23;19915;-87
2022/04/22 14:46:16;;;;;;;4.55;4.13;;;23.20;40.60;;;;;;6214116;23;20009;-87
2022/04/22 14:48:48;;;;;;;7.15;4.45;;;23.30;40.50;;;;;;6211304;23;20016;-88
2022/04/22 14:51:13;;;;;;;5.55;4.15;;;23.40;40.30;;;;;;6212613;23;20001;-85
2022/04/22 14:53:43;;;;;;;7.93;4.20;;;23.60;40.70;;;;;;6212809;23;20008;-85